Map

Track Data

SID SEASON NUMBER BASIN SUBBASIN NAME ISO_TIME NATURE LAT LON WMO_WIND WMO_PRES WMO_AGENCY TRACK_TYPE DIST2LAND LANDFALL IFLAG USA_AGENCY USA_ATCF_ID USA_LAT USA_LON USA_RECORD USA_STATUS USA_WIND USA_PRES USA_SSHS USA_R34_NE USA_R34_SE USA_R34_SW USA_R34_NW USA_R50_NE USA_R50_SE USA_R50_SW USA_R50_NW USA_R64_NE USA_R64_SE USA_R64_SW USA_R64_NW USA_POCI USA_ROCI USA_RMW USA_EYE TOKYO_LAT TOKYO_LON TOKYO_GRADE TOKYO_WIND TOKYO_PRES TOKYO_R50_DIR TOKYO_R50_LONG TOKYO_R50_SHORT TOKYO_R30_DIR TOKYO_R30_LONG TOKYO_R30_SHORT TOKYO_LAND CMA_LAT CMA_LON CMA_CAT CMA_WIND CMA_PRES HKO_LAT HKO_LON HKO_CAT HKO_WIND HKO_PRES NEWDELHI_LAT NEWDELHI_LON NEWDELHI_GRADE NEWDELHI_WIND NEWDELHI_PRES NEWDELHI_CI NEWDELHI_DP NEWDELHI_POCI REUNION_LAT REUNION_LON REUNION_TYPE REUNION_WIND REUNION_PRES REUNION_TNUM REUNION_CI REUNION_RMW REUNION_R34_NE REUNION_R34_SE REUNION_R34_SW REUNION_R34_NW REUNION_R50_NE REUNION_R50_SE REUNION_R50_SW REUNION_R50_NW REUNION_R64_NE REUNION_R64_SE REUNION_R64_SW REUNION_R64_NW BOM_LAT BOM_LON BOM_TYPE BOM_WIND BOM_PRES BOM_TNUM BOM_CI BOM_RMW BOM_R34_NE BOM_R34_SE BOM_R34_SW BOM_R34_NW BOM_R50_NE BOM_R50_SE BOM_R50_SW BOM_R50_NW BOM_R64_NE BOM_R64_SE BOM_R64_SW BOM_R64_NW BOM_ROCI BOM_POCI BOM_EYE BOM_POS_METHOD BOM_PRES_METHOD NADI_LAT NADI_LON NADI_CAT NADI_WIND NADI_PRES WELLINGTON_LAT WELLINGTON_LON WELLINGTON_WIND WELLINGTON_PRES DS824_LAT DS824_LON DS824_STAGE DS824_WIND DS824_PRES TD9636_LAT TD9636_LON TD9636_STAGE TD9636_WIND TD9636_PRES TD9635_LAT TD9635_LON TD9635_WIND TD9635_PRES TD9635_ROCI NEUMANN_LAT NEUMANN_LON NEUMANN_CLASS NEUMANN_WIND NEUMANN_PRES MLC_LAT MLC_LON MLC_CLASS MLC_WIND MLC_PRES USA_GUST BOM_GUST BOM_GUST_PER REUNION_GUST REUNION_GUST_PER USA_SEAHGT USA_SEARAD_NE USA_SEARAD_SE USA_SEARAD_SW USA_SEARAD_NW STORM_SPEED STORM_DIR
1925238N30282 1925 42 NA NA NOT_NAMED 1925-08-25 12:00:00 TS 30.0000 -78.0000 25 hurdat_atl main 294 294 O_____________ hurdat_atl AL021925 30.0000 -78.0000 TD 25 -1 7 24
1925238N30282 1925 42 NA NA NOT_NAMED 1925-08-25 15:00:00 TS 30.3001 -77.8477 main 327 311 P_____________ AL021925 30.3001 -77.8477 TD 27 -1 7 23
1925238N30282 1925 42 NA NA NOT_NAMED 1925-08-25 18:00:00 TS 30.6000 -77.7000 30 hurdat_atl main 311 289 O_____________ hurdat_atl AL021925 30.6000 -77.7000 TD 30 -1 7 23
1925238N30282 1925 42 NA NA NOT_NAMED 1925-08-25 21:00:00 TS 30.9000 -77.5573 main 289 275 P_____________ AL021925 30.9000 -77.5573 TD 30 -1 7 23
1925238N30282 1925 42 NA NA NOT_NAMED 1925-08-26 00:00:00 TS 31.2000 -77.4000 30 hurdat_atl main 275 265 O_____________ hurdat_atl AL021925 31.2000 -77.4000 TD 30 -1 7 26
1925238N30282 1925 42 NA NA NOT_NAMED 1925-08-26 03:00:00 TS 31.4925 -77.2148 main 265 252 P_____________ AL021925 31.4925 -77.2148 TD 32 -1 7 30
1925238N30282 1925 42 NA NA NOT_NAMED 1925-08-26 06:00:00 TS 31.8000 -77.0000 35 hurdat_atl main 252 229 O_____________ hurdat_atl AL021925 31.8000 -77.0000 TS 35 0 7 29
1925238N30282 1925 42 NA NA NOT_NAMED 1925-08-26 09:00:00 TS 32.1423 -76.7871 main 229 209 P_____________ AL021925 32.1423 -76.7871 TS 35 0 8 31
1925238N30282 1925 42 NA NA NOT_NAMED 1925-08-26 12:00:00 TS 32.5000 -76.5000 35 hurdat_atl main 209 206 O_____________ hurdat_atl AL021925 32.5000 -76.5000 TS 35 0 9 38
1925238N30282 1925 42 NA NA NOT_NAMED 1925-08-26 15:00:00 TS 32.8571 -76.1172 main 204 182 P_____________ AL021925 32.8571 -76.1172 TS 35 0 10 47
1925238N30282 1925 42 NA NA NOT_NAMED 1925-08-26 18:00:00 TS 33.2000 -75.6000 35 hurdat_atl main 186 181 O_____________ hurdat_atl AL021925 33.2000 -75.6000 TS 35 0 12 56
1925238N30282 1925 42 NA NA NOT_NAMED 1925-08-26 21:00:00 TS 33.5069 -74.9743 main 192 191 P_____________ AL021925 33.5069 -74.9743 TS 35 0 13 63
1925238N30282 1925 42 NA NA NOT_NAMED 1925-08-27 00:00:00 TS 33.8000 -74.2000 35 hurdat_atl main 228 228 O_____________ hurdat_atl AL021925 33.8000 -74.2000 TS 35 0 15 67
1925238N30282 1925 42 NA NA NOT_NAMED 1925-08-27 03:00:00 TS 34.0993 -73.3168 main 275 275 P_____________ AL021925 34.0993 -73.3168 TS 35 0 17 69
1925238N30282 1925 42 NA NA NOT_NAMED 1925-08-27 06:00:00 TS 34.4000 -72.3000 35 hurdat_atl main 329 329 O_____________ hurdat_atl AL021925 34.4000 -72.3000 TS 35 0 19 71
1925238N30282 1925 42 NA NA NOT_NAMED 1925-08-27 09:00:00 TS 34.7068 -71.1946 main 408 408 P_____________ AL021925 34.7068 -71.1946 TS 35 0 20 72
1925238N30282 1925 42 NA NA NOT_NAMED 1925-08-27 12:00:00 TS 35.0000 -70.0000 35 hurdat_atl main 505 505 O_____________ hurdat_atl AL021925 35.0000 -70.0000 TS 35 0 20 74
1925238N30282 1925 42 NA NA NOT_NAMED 1925-08-27 15:00:00 TS 35.2554 -68.8011 main 607 607 P_____________ AL021925 35.2554 -68.8011 TS 35 0 21 76
1925238N30282 1925 42 NA NA NOT_NAMED 1925-08-27 18:00:00 TS 35.5000 -67.5000 35 hurdat_atl main 721 721 O_____________ hurdat_atl AL021925 35.5000 -67.5000 TS 35 0 23 78
1925238N30282 1925 42 NA NA NOT_NAMED 1925-08-27 21:00:00 TS 35.7521 -66.0474 main 742 742 P_____________ AL021925 35.7521 -66.0474 TS 32 -1 25 78
1925238N30282 1925 42 NA NA NOT_NAMED 1925-08-28 00:00:00 ET 36.0000 -64.5000 30 hurdat_atl main 792 O_____________ hurdat_atl AL021925 36.0000 -64.5000 EX 30 -4 26 79

About IBTrACS Database

This database is a web-friendly format of International Best Track Archive for Climate Stewardship (IBTrACS), a global best track data archive curated by NOAA dating back to 1842.

Updated: 2021-10-25